EHWO/WOE METAR and TAF weather

Enter ICAO airport designator
Station Type Date Time Source
EHWO METAR 2020/09/22 21:01 UTC NOAA

EHWO 222101Z AUTO 34001KT 8000 BR SCT056 12/11 Q1007 BLU


Station Type Date Time Source
EHWO Decoded METAR 2020/09/22 21:01 UTC NOAA

Woensdrecht, Netherlands (EHWO) 51-27N 004-20E 17M
Sep 22, 2020 - 05:01 PM EDT / 2020.09.22 2101 UTC
Wind: from the NNW (340 degrees) at 1 MPH (1 KT):0
Visibility: 4 mile(s):0
Sky conditions: partly cloudy
Weather: mist
Temperature: 53 F (12 C)
Dew Point: 51 F (11 C)
Relative Humidity: 93%
Pressure (altimeter): 29.74 in. Hg (1007 hPa)
ob: EHWO 222101Z AUTO 34001KT 8000 BR SCT056 12/11 Q1007 BLU
cycle: 21

Station Type Date Time Source
EHWO TAF 2020/09/22 09:06 UTC NOAA

TAF EHWO 220809Z 2209/2221 VRB03KT 4000 BR NSC
BECMG 2209/2211 CAVOK
BECMG 2211/2213 26005KT
BECMG 2218/2220 VRB03KT

Example: see airport list